sensor_id;sensor_type;location;lat;lon;timestamp;temperature;humidity
61207;DHT22;47070;49.212;8.084;2022-11-11T00:03:17;8.80;99.90
61207;DHT22;47070;49.212;8.084;2022-11-11T00:07:17;8.90;99.90
61207;DHT22;47070;49.212;8.084;2022-11-11T00:11:18;8.80;99.90
61207;DHT22;47070;49.212;8.084;2022-11-11T00:15:19;8.50;99.90
61207;DHT22;47070;49.212;8.084;2022-11-11T00:19:19;8.60;99.90
61207;DHT22;47070;49.212;8.084;2022-11-11T00:23:38;8.60;99.90
61207;DHT22;47070;49.212;8.084;2022-11-11T00:27:57;8.60;99.90
61207;DHT22;47070;49.212;8.084;2022-11-11T00:31:58;8.60;99.90
61207;DHT22;47070;49.212;8.084;2022-11-11T00:36:17;8.60;99.90
61207;DHT22;47070;49.212;8.084;2022-11-11T00:40:18;8.60;99.90
61207;DHT22;47070;49.212;8.084;2022-11-11T00:44:19;8.40;99.90
61207;DHT22;47070;49.212;8.084;2022-11-11T00:48:19;8.30;99.90
61207;DHT22;47070;49.212;8.084;2022-11-11T00:52:39;8.30;99.90
61207;DHT22;47070;49.212;8.084;2022-11-11T00:56:39;7.90;99.90
61207;DHT22;47070;49.212;8.084;2022-11-11T01:00:40;8.20;99.90
61207;DHT22;47070;49.212;8.084;2022-11-11T01:04:40;8.00;99.90
61207;DHT22;47070;49.212;8.084;2022-11-11T01:08:40;8.00;99.90
61207;DHT22;47070;49.212;8.084;2022-11-11T01:12:41;7.80;99.90
61207;DHT22;47070;49.212;8.084;2022-11-11T01:16:42;7.90;99.90
61207;DHT22;47070;49.212;8.084;2022-11-11T01:20:43;7.90;99.90
61207;DHT22;47070;49.212;8.084;2022-11-11T01:24:44;8.00;99.90
61207;DHT22;47070;49.212;8.084;2022-11-11T01:28:48;8.20;99.90
61207;DHT22;47070;49.212;8.084;2022-11-11T01:32:49;8.00;99.90
61207;DHT22;47070;49.212;8.084;2022-11-11T01:36:49;8.10;99.90
61207;DHT22;47070;49.212;8.084;2022-11-11T01:40:50;8.10;99.90
61207;DHT22;47070;49.212;8.084;2022-11-11T01:44:50;8.10;99.90
61207;DHT22;47070;49.212;8.084;2022-11-11T01:49:18;8.30;99.90
61207;DHT22;47070;49.212;8.084;2022-11-11T01:53:20;8.40;99.90
61207;DHT22;47070;49.212;8.084;2022-11-11T01:57:22;8.30;99.90
61207;DHT22;47070;49.212;8.084;2022-11-11T02:01:24;8.10;99.90
61207;DHT22;47070;49.212;8.084;2022-11-11T02:05:25;8.10;99.90
61207;DHT22;47070;49.212;8.084;2022-11-11T02:09:45;8.10;99.90
61207;DHT22;47070;49.212;8.084;2022-11-11T02:13:46;8.00;99.90
61207;DHT22;47070;49.212;8.084;2022-11-11T02:18:05;7.80;99.90
61207;DHT22;47070;49.212;8.084;2022-11-11T02:22:09;8.00;99.90
61207;DHT22;47070;49.212;8.084;2022-11-11T02:26:13;8.00;99.90
61207;DHT22;47070;49.212;8.084;2022-11-11T02:30:17;8.00;99.90
61207;DHT22;47070;49.212;8.084;2022-11-11T02:34:17;7.90;99.90
61207;DHT22;47070;49.212;8.084;2022-11-11T02:38:18;8.10;99.90
61207;DHT22;47070;49.212;8.084;2022-11-11T02:42:19;8.20;99.90
61207;DHT22;47070;49.212;8.084;2022-11-11T02:46:20;8.20;99.90
61207;DHT22;47070;49.212;8.084;2022-11-11T02:50:21;8.10;99.90
61207;DHT22;47070;49.212;8.084;2022-11-11T02:54:21;8.20;99.90
61207;DHT22;47070;49.212;8.084;2022-11-11T02:58:22;8.20;99.90
61207;DHT22;47070;49.212;8.084;2022-11-11T03:02:22;8.00;99.90
61207;DHT22;47070;49.212;8.084;2022-11-11T03:06:26;8.00;99.90
61207;DHT22;47070;49.212;8.084;2022-11-11T03:10:27;7.80;99.90
61207;DHT22;47070;49.212;8.084;2022-11-11T03:14:37;7.70;99.90
61207;DHT22;47070;49.212;8.084;2022-11-11T03:18:37;7.70;99.90
61207;DHT22;47070;49.212;8.084;2022-11-11T03:22:38;7.50;99.90
61207;DHT22;47070;49.212;8.084;2022-11-11T03:26:38;7.60;99.90
61207;DHT22;47070;49.212;8.084;2022-11-11T03:30:42;7.50;99.90
61207;DHT22;47070;49.212;8.084;2022-11-11T03:34:42;7.60;99.90
61207;DHT22;47070;49.212;8.084;2022-11-11T03:38:43;7.50;99.90
61207;DHT22;47070;49.212;8.084;2022-11-11T03:42:43;7.30;99.90
61207;DHT22;47070;49.212;8.084;2022-11-11T03:46:44;7.40;99.90
61207;DHT22;47070;49.212;8.084;2022-11-11T03:50:47;7.60;99.90
61207;DHT22;47070;49.212;8.084;2022-11-11T03:54:48;7.60;99.90
61207;DHT22;47070;49.212;8.084;2022-11-11T03:58:48;7.50;99.90
61207;DHT22;47070;49.212;8.084;2022-11-11T04:02:49;7.60;99.90
61207;DHT22;47070;49.212;8.084;2022-11-11T04:07:09;7.70;99.90
61207;DHT22;47070;49.212;8.084;2022-11-11T04:11:37;7.80;99.90
61207;DHT22;47070;49.212;8.084;2022-11-11T04:15:39;7.80;99.90
61207;DHT22;47070;49.212;8.084;2022-11-11T04:19:58;7.40;99.90
61207;DHT22;47070;49.212;8.084;2022-11-11T04:24:19;7.20;99.90
61207;DHT22;47070;49.212;8.084;2022-11-11T04:28:38;7.20;99.90
61207;DHT22;47070;49.212;8.084;2022-11-11T04:32:57;7.40;99.90
61207;DHT22;47070;49.212;8.084;2022-11-11T04:36:58;7.50;99.90
61207;DHT22;47070;49.212;8.084;2022-11-11T04:40:58;7.60;99.90
61207;DHT22;47070;49.212;8.084;2022-11-11T04:45:08;7.40;99.90
61207;DHT22;47070;49.212;8.084;2022-11-11T04:49:27;7.40;99.90
61207;DHT22;47070;49.212;8.084;2022-11-11T04:53:27;7.00;99.90
61207;DHT22;47070;49.212;8.084;2022-11-11T04:57:29;7.20;99.90
61207;DHT22;47070;49.212;8.084;2022-11-11T05:01:30;7.40;99.90
61207;DHT22;47070;49.212;8.084;2022-11-11T05:05:50;7.40;99.90
61207;DHT22;47070;49.212;8.084;2022-11-11T05:10:09;7.50;99.90
61207;DHT22;47070;49.212;8.084;2022-11-11T05:14:09;7.50;99.90
61207;DHT22;47070;49.212;8.084;2022-11-11T05:18:28;7.50;99.90
61207;DHT22;47070;49.212;8.084;2022-11-11T05:22:48;7.60;99.90
61207;DHT22;47070;49.212;8.084;2022-11-11T05:26:48;7.40;99.90
61207;DHT22;47070;49.212;8.084;2022-11-11T05:30:48;7.20;99.90
61207;DHT22;47070;49.212;8.084;2022-11-11T05:34:49;7.10;99.90
61207;DHT22;47070;49.212;8.084;2022-11-11T05:38:50;7.20;99.90
61207;DHT22;47070;49.212;8.084;2022-11-11T05:42:50;7.50;99.90
61207;DHT22;47070;49.212;8.084;2022-11-11T05:46:51;7.50;99.90
61207;DHT22;47070;49.212;8.084;2022-11-11T05:50:51;7.60;99.90
61207;DHT22;47070;49.212;8.084;2022-11-11T05:54:52;7.50;99.90
61207;DHT22;47070;49.212;8.084;2022-11-11T05:58:52;7.40;99.90
61207;DHT22;47070;49.212;8.084;2022-11-11T06:02:53;7.60;99.90
61207;DHT22;47070;49.212;8.084;2022-11-11T06:06:54;7.30;99.90
61207;DHT22;47070;49.212;8.084;2022-11-11T06:10:55;7.50;99.90
61207;DHT22;47070;49.212;8.084;2022-11-11T06:14:55;7.40;99.90
61207;DHT22;47070;49.212;8.084;2022-11-11T06:18:56;7.20;99.90
61207;DHT22;47070;49.212;8.084;2022-11-11T06:22:57;7.40;99.90
61207;DHT22;47070;49.212;8.084;2022-11-11T06:26:57;8.00;99.90
61207;DHT22;47070;49.212;8.084;2022-11-11T06:30:59;8.10;99.90
61207;DHT22;47070;49.212;8.084;2022-11-11T06:34:59;8.30;99.90
61207;DHT22;47070;49.212;8.084;2022-11-11T06:39:00;8.30;99.90
61207;DHT22;47070;49.212;8.084;2022-11-11T06:43:00;8.20;99.90
61207;DHT22;47070;49.212;8.084;2022-11-11T06:47:01;8.30;99.90
61207;DHT22;47070;49.212;8.084;2022-11-11T06:51:04;8.20;99.90
61207;DHT22;47070;49.212;8.084;2022-11-11T06:55:05;8.20;99.90
61207;DHT22;47070;49.212;8.084;2022-11-11T06:59:05;8.10;99.90
61207;DHT22;47070;49.212;8.084;2022-11-11T07:03:06;8.20;99.90
61207;DHT22;47070;49.212;8.084;2022-11-11T07:07:08;8.50;99.90
61207;DHT22;47070;49.212;8.084;2022-11-11T07:11:09;8.60;99.90
61207;DHT22;47070;49.212;8.084;2022-11-11T07:15:10;8.90;99.90
61207;DHT22;47070;49.212;8.084;2022-11-11T07:19:10;9.00;99.90
61207;DHT22;47070;49.212;8.084;2022-11-11T07:23:11;10.90;99.90
61207;DHT22;47070;49.212;8.084;2022-11-11T07:27:11;9.70;99.90
61207;DHT22;47070;49.212;8.084;2022-11-11T07:31:12;9.50;99.90
61207;DHT22;47070;49.212;8.084;2022-11-11T07:35:13;9.60;99.90
61207;DHT22;47070;49.212;8.084;2022-11-11T07:39:14;9.30;99.90
61207;DHT22;47070;49.212;8.084;2022-11-11T07:43:14;9.40;99.90
61207;DHT22;47070;49.212;8.084;2022-11-11T07:47:15;9.40;99.90
61207;DHT22;47070;49.212;8.084;2022-11-11T07:51:15;9.50;99.90
61207;DHT22;47070;49.212;8.084;2022-11-11T07:55:16;9.70;99.90
61207;DHT22;47070;49.212;8.084;2022-11-11T07:59:17;9.70;99.90
61207;DHT22;47070;49.212;8.084;2022-11-11T08:03:17;9.70;99.90
61207;DHT22;47070;49.212;8.084;2022-11-11T08:07:18;9.60;99.90
61207;DHT22;47070;49.212;8.084;2022-11-11T08:11:19;9.90;99.90
61207;DHT22;47070;49.212;8.084;2022-11-11T08:15:39;9.80;99.90
61207;DHT22;47070;49.212;8.084;2022-11-11T08:19:41;9.40;99.90
61207;DHT22;47070;49.212;8.084;2022-11-11T08:23:41;9.60;99.90
61207;DHT22;47070;49.212;8.084;2022-11-11T08:27:42;9.70;99.90
61207;DHT22;47070;49.212;8.084;2022-11-11T08:31:42;9.90;99.90
61207;DHT22;47070;49.212;8.084;2022-11-11T08:35:43;10.00;99.90
61207;DHT22;47070;49.212;8.084;2022-11-11T08:39:43;10.00;99.90
61207;DHT22;47070;49.212;8.084;2022-11-11T08:43:44;10.00;99.90
61207;DHT22;47070;49.212;8.084;2022-11-11T08:47:44;10.20;99.90
61207;DHT22;47070;49.212;8.084;2022-11-11T08:51:45;10.30;99.90
61207;DHT22;47070;49.212;8.084;2022-11-11T08:55:45;10.30;99.90
61207;DHT22;47070;49.212;8.084;2022-11-11T08:59:46;10.40;99.90
61207;DHT22;47070;49.212;8.084;2022-11-11T09:03:46;10.50;99.90
61207;DHT22;47070;49.212;8.084;2022-11-11T09:07:47;10.90;99.90
61207;DHT22;47070;49.212;8.084;2022-11-11T09:11:47;10.70;99.90
61207;DHT22;47070;49.212;8.084;2022-11-11T09:15:48;11.00;99.90
61207;DHT22;47070;49.212;8.084;2022-11-11T09:19:48;11.20;99.90
61207;DHT22;47070;49.212;8.084;2022-11-11T09:23:49;11.00;99.90
61207;DHT22;47070;49.212;8.084;2022-11-11T09:27:54;11.00;99.90
61207;DHT22;47070;49.212;8.084;2022-11-11T09:31:55;11.20;99.90
61207;DHT22;47070;49.212;8.084;2022-11-11T09:35:57;11.40;99.90
61207;DHT22;47070;49.212;8.084;2022-11-11T09:39:58;11.70;99.90
61207;DHT22;47070;49.212;8.084;2022-11-11T09:44:00;11.20;99.90
61207;DHT22;47070;49.212;8.084;2022-11-11T09:48:37;11.60;99.90
61207;DHT22;47070;49.212;8.084;2022-11-11T09:56:41;11.50;99.90
61207;DHT22;47070;49.212;8.084;2022-11-11T10:00:45;11.40;99.90
61207;DHT22;47070;49.212;8.084;2022-11-11T10:05:07;11.40;99.90
61207;DHT22;47070;49.212;8.084;2022-11-11T10:09:30;11.50;99.90
61207;DHT22;47070;49.212;8.084;2022-11-11T10:13:35;11.50;99.90
61207;DHT22;47070;49.212;8.084;2022-11-11T10:17:59;11.50;99.90
61207;DHT22;47070;49.212;8.084;2022-11-11T10:22:27;11.60;99.90
61207;DHT22;47070;49.212;8.084;2022-11-11T10:26:37;11.50;99.90
61207;DHT22;47070;49.212;8.084;2022-11-11T10:30:38;11.40;99.90
61207;DHT22;47070;49.212;8.084;2022-11-11T10:34:39;11.50;99.90
61207;DHT22;47070;49.212;8.084;2022-11-11T10:42:47;11.30;99.90
61207;DHT22;47070;49.212;8.084;2022-11-11T10:47:12;11.30;99.90
61207;DHT22;47070;49.212;8.084;2022-11-11T10:51:15;11.50;99.90
61207;DHT22;47070;49.212;8.084;2022-11-11T10:55:23;11.80;99.90
61207;DHT22;47070;49.212;8.084;2022-11-11T11:03:46;12.00;99.90
61207;DHT22;47070;49.212;8.084;2022-11-11T11:07:52;12.10;99.90
61207;DHT22;47070;49.212;8.084;2022-11-11T11:12:09;12.10;99.90
61207;DHT22;47070;49.212;8.084;2022-11-11T11:16:22;12.00;99.90
61207;DHT22;47070;49.212;8.084;2022-11-11T11:20:24;12.10;99.90
61207;DHT22;47070;49.212;8.084;2022-11-11T11:24:35;12.30;99.90
61207;DHT22;47070;49.212;8.084;2022-11-11T11:28:58;12.10;99.90
61207;DHT22;47070;49.212;8.084;2022-11-11T11:33:03;11.90;99.90
61207;DHT22;47070;49.212;8.084;2022-11-11T11:37:04;12.00;99.90
61207;DHT22;47070;49.212;8.084;2022-11-11T11:41:04;11.70;99.90
61207;DHT22;47070;49.212;8.084;2022-11-11T11:45:22;11.50;99.90
61207;DHT22;47070;49.212;8.084;2022-11-11T12:08:00;12.20;99.90
61207;DHT22;47070;49.212;8.084;2022-11-11T12:12:23;12.20;99.90
61207;DHT22;47070;49.212;8.084;2022-11-11T12:16:47;11.90;99.90
61207;DHT22;47070;49.212;8.084;2022-11-11T12:21:09;11.70;99.90
61207;DHT22;47070;49.212;8.084;2022-11-11T12:25:19;12.00;99.90
61207;DHT22;47070;49.212;8.084;2022-11-11T12:29:47;12.40;99.90
61207;DHT22;47070;49.212;8.084;2022-11-11T12:34:15;12.70;99.90
61207;DHT22;47070;49.212;8.084;2022-11-11T12:38:38;13.20;99.90
61207;DHT22;47070;49.212;8.084;2022-11-11T12:43:01;13.00;99.90
61207;DHT22;47070;49.212;8.084;2022-11-11T12:47:44;12.90;99.90
61207;DHT22;47070;49.212;8.084;2022-11-11T13:00:29;12.60;99.90
61207;DHT22;47070;49.212;8.084;2022-11-11T13:04:39;12.70;99.90
61207;DHT22;47070;49.212;8.084;2022-11-11T13:09:04;12.80;99.90
61207;DHT22;47070;49.212;8.084;2022-11-11T13:13:40;12.70;99.90
61207;DHT22;47070;49.212;8.084;2022-11-11T13:17:43;12.80;99.90
61207;DHT22;47070;49.212;8.084;2022-11-11T13:21:47;12.50;99.90
61207;DHT22;47070;49.212;8.084;2022-11-11T13:25:55;12.20;99.90
61207;DHT22;47070;49.212;8.084;2022-11-11T13:30:02;12.10;99.90
61207;DHT22;47070;49.212;8.084;2022-11-11T13:34:09;11.70;99.90
61207;DHT22;47070;49.212;8.084;2022-11-11T13:38:22;12.00;99.90
61207;DHT22;47070;49.212;8.084;2022-11-11T13:42:27;12.10;99.90
61207;DHT22;47070;49.212;8.084;2022-11-11T13:46:48;12.40;99.90
61207;DHT22;47070;49.212;8.084;2022-11-11T13:50:48;11.60;99.90
61207;DHT22;47070;49.212;8.084;2022-11-11T13:55:01;11.90;99.90
61207;DHT22;47070;49.212;8.084;2022-11-11T13:59:01;11.90;99.90
61207;DHT22;47070;49.212;8.084;2022-11-11T14:11:46;12.20;99.90
61207;DHT22;47070;49.212;8.084;2022-11-11T14:15:48;12.20;99.90
61207;DHT22;47070;49.212;8.084;2022-11-11T14:19:49;12.20;99.90
61207;DHT22;47070;49.212;8.084;2022-11-11T14:23:53;12.50;99.90
61207;DHT22;47070;49.212;8.084;2022-11-11T14:27:54;12.00;99.90
61207;DHT22;47070;49.212;8.084;2022-11-11T14:32:04;12.20;99.90
61207;DHT22;47070;49.212;8.084;2022-11-11T14:40:35;11.60;99.90
61207;DHT22;47070;49.212;8.084;2022-11-11T14:52:53;11.60;99.90
61207;DHT22;47070;49.212;8.084;2022-11-11T14:57:17;11.50;99.90
61207;DHT22;47070;49.212;8.084;2022-11-11T15:01:20;11.40;99.90
61207;DHT22;47070;49.212;8.084;2022-11-11T15:05:54;11.40;99.90
61207;DHT22;47070;49.212;8.084;2022-11-11T15:10:26;11.60;99.90
61207;DHT22;47070;49.212;8.084;2022-11-11T15:14:47;12.00;99.90
61207;DHT22;47070;49.212;8.084;2022-11-11T15:27:55;11.70;99.90
61207;DHT22;47070;49.212;8.084;2022-11-11T15:40:48;11.80;99.90
61207;DHT22;47070;49.212;8.084;2022-11-11T15:44:49;11.70;99.90
61207;DHT22;47070;49.212;8.084;2022-11-11T15:48:50;11.50;99.90
61207;DHT22;47070;49.212;8.084;2022-11-11T15:52:56;11.20;99.90
61207;DHT22;47070;49.212;8.084;2022-11-11T15:56:56;11.30;99.90
61207;DHT22;47070;49.212;8.084;2022-11-11T16:00:59;11.30;99.90
61207;DHT22;47070;49.212;8.084;2022-11-11T16:05:09;11.40;99.90
61207;DHT22;47070;49.212;8.084;2022-11-11T16:09:22;11.10;99.90
61207;DHT22;47070;49.212;8.084;2022-11-11T16:13:36;11.30;99.90
61207;DHT22;47070;49.212;8.084;2022-11-11T16:17:40;11.30;99.90
61207;DHT22;47070;49.212;8.084;2022-11-11T16:21:59;11.30;99.90
61207;DHT22;47070;49.212;8.084;2022-11-11T16:26:01;11.30;99.90
61207;DHT22;47070;49.212;8.084;2022-11-11T16:30:30;11.40;99.90
61207;DHT22;47070;49.212;8.084;2022-11-11T16:34:33;11.30;99.90
61207;DHT22;47070;49.212;8.084;2022-11-11T16:38:35;11.10;99.90
61207;DHT22;47070;49.212;8.084;2022-11-11T16:42:37;11.00;99.90
61207;DHT22;47070;49.212;8.084;2022-11-11T16:46:39;11.00;99.90
61207;DHT22;47070;49.212;8.084;2022-11-11T16:50:59;10.90;99.90
61207;DHT22;47070;49.212;8.084;2022-11-11T16:55:01;10.90;99.90
61207;DHT22;47070;49.212;8.084;2022-11-11T16:59:09;11.00;99.90
61207;DHT22;47070;49.212;8.084;2022-11-11T17:03:20;10.70;99.90
61207;DHT22;47070;49.212;8.084;2022-11-11T17:07:40;10.70;99.90
61207;DHT22;47070;49.212;8.084;2022-11-11T17:11:42;10.60;99.90
61207;DHT22;47070;49.212;8.084;2022-11-11T17:15:43;10.70;99.90
61207;DHT22;47070;49.212;8.084;2022-11-11T17:19:44;10.90;99.90
61207;DHT22;47070;49.212;8.084;2022-11-11T17:23:44;10.90;99.90
61207;DHT22;47070;49.212;8.084;2022-11-11T17:27:45;10.90;99.90
61207;DHT22;47070;49.212;8.084;2022-11-11T17:31:46;11.00;99.90
61207;DHT22;47070;49.212;8.084;2022-11-11T17:35:52;11.00;99.90
61207;DHT22;47070;49.212;8.084;2022-11-11T17:39:53;10.90;99.90
61207;DHT22;47070;49.212;8.084;2022-11-11T17:43:54;11.00;99.90
61207;DHT22;47070;49.212;8.084;2022-11-11T17:47:54;11.00;99.90
61207;DHT22;47070;49.212;8.084;2022-11-11T17:51:55;10.90;99.90
61207;DHT22;47070;49.212;8.084;2022-11-11T17:55:59;10.80;99.90
61207;DHT22;47070;49.212;8.084;2022-11-11T18:00:01;10.50;99.90
61207;DHT22;47070;49.212;8.084;2022-11-11T18:04:02;10.40;99.90
61207;DHT22;47070;49.212;8.084;2022-11-11T18:08:03;10.40;99.90
61207;DHT22;47070;49.212;8.084;2022-11-11T18:12:04;10.60;99.90
61207;DHT22;47070;49.212;8.084;2022-11-11T18:16:05;10.70;99.90
61207;DHT22;47070;49.212;8.084;2022-11-11T18:20:06;10.60;99.90
61207;DHT22;47070;49.212;8.084;2022-11-11T18:24:08;10.40;99.90
61207;DHT22;47070;49.212;8.084;2022-11-11T18:28:09;10.40;99.90
61207;DHT22;47070;49.212;8.084;2022-11-11T18:32:10;10.50;99.90
61207;DHT22;47070;49.212;8.084;2022-11-11T18:36:16;10.50;99.90
61207;DHT22;47070;49.212;8.084;2022-11-11T18:40:16;10.50;99.90
61207;DHT22;47070;49.212;8.084;2022-11-11T18:44:17;10.30;99.90
61207;DHT22;47070;49.212;8.084;2022-11-11T18:48:17;10.40;99.90
61207;DHT22;47070;49.212;8.084;2022-11-11T18:52:18;10.10;99.90
61207;DHT22;47070;49.212;8.084;2022-11-11T18:56:21;10.00;99.90
61207;DHT22;47070;49.212;8.084;2022-11-11T19:00:21;10.30;99.90
61207;DHT22;47070;49.212;8.084;2022-11-11T19:04:22;10.30;99.90
61207;DHT22;47070;49.212;8.084;2022-11-11T19:08:22;10.20;99.90
61207;DHT22;47070;49.212;8.084;2022-11-11T19:12:23;10.40;99.90
61207;DHT22;47070;49.212;8.084;2022-11-11T19:16:23;10.30;99.90
61207;DHT22;47070;49.212;8.084;2022-11-11T19:20:24;10.20;99.90
61207;DHT22;47070;49.212;8.084;2022-11-11T19:24:25;10.10;99.90
61207;DHT22;47070;49.212;8.084;2022-11-11T19:28:25;10.20;99.90
61207;DHT22;47070;49.212;8.084;2022-11-11T19:32:26;10.40;99.90
61207;DHT22;47070;49.212;8.084;2022-11-11T19:36:28;10.40;99.90
61207;DHT22;47070;49.212;8.084;2022-11-11T19:40:29;10.40;99.90
61207;DHT22;47070;49.212;8.084;2022-11-11T19:44:29;10.40;99.90
61207;DHT22;47070;49.212;8.084;2022-11-11T19:48:30;10.40;99.90
61207;DHT22;47070;49.212;8.084;2022-11-11T19:52:31;10.30;99.90
61207;DHT22;47070;49.212;8.084;2022-11-11T19:56:31;10.30;99.90
61207;DHT22;47070;49.212;8.084;2022-11-11T20:00:34;10.40;99.90
61207;DHT22;47070;49.212;8.084;2022-11-11T20:04:35;10.70;99.90
61207;DHT22;47070;49.212;8.084;2022-11-11T20:08:35;10.70;99.90
61207;DHT22;47070;49.212;8.084;2022-11-11T20:12:36;10.50;99.90
61207;DHT22;47070;49.212;8.084;2022-11-11T20:16:36;10.30;99.90
61207;DHT22;47070;49.212;8.084;2022-11-11T20:20:37;10.10;99.90
61207;DHT22;47070;49.212;8.084;2022-11-11T20:24:37;10.10;99.90
61207;DHT22;47070;49.212;8.084;2022-11-11T20:28:39;9.90;99.90
61207;DHT22;47070;49.212;8.084;2022-11-11T20:32:40;9.80;99.90
61207;DHT22;47070;49.212;8.084;2022-11-11T20:36:40;9.60;99.90
61207;DHT22;47070;49.212;8.084;2022-11-11T20:40:41;9.50;99.90
61207;DHT22;47070;49.212;8.084;2022-11-11T20:44:41;9.60;99.90
61207;DHT22;47070;49.212;8.084;2022-11-11T20:48:43;9.40;99.90
61207;DHT22;47070;49.212;8.084;2022-11-11T20:52:44;9.40;99.90
61207;DHT22;47070;49.212;8.084;2022-11-11T20:56:44;9.30;99.90
61207;DHT22;47070;49.212;8.084;2022-11-11T21:00:47;9.40;99.90
61207;DHT22;47070;49.212;8.084;2022-11-11T21:04:47;9.20;99.90
61207;DHT22;47070;49.212;8.084;2022-11-11T21:08:48;9.30;99.90
61207;DHT22;47070;49.212;8.084;2022-11-11T21:12:48;9.30;99.90
61207;DHT22;47070;49.212;8.084;2022-11-11T21:16:49;9.20;99.90
61207;DHT22;47070;49.212;8.084;2022-11-11T21:20:49;8.90;99.90
61207;DHT22;47070;49.212;8.084;2022-11-11T21:24:50;8.90;99.90
61207;DHT22;47070;49.212;8.084;2022-11-11T21:28:50;8.80;99.90
61207;DHT22;47070;49.212;8.084;2022-11-11T21:32:51;8.80;99.90
61207;DHT22;47070;49.212;8.084;2022-11-11T21:36:52;8.80;99.90
61207;DHT22;47070;49.212;8.084;2022-11-11T21:41:00;9.00;99.90
61207;DHT22;47070;49.212;8.084;2022-11-11T21:45:00;8.80;99.90
61207;DHT22;47070;49.212;8.084;2022-11-11T21:49:02;8.80;99.90
61207;DHT22;47070;49.212;8.084;2022-11-11T21:53:02;9.20;99.90
61207;DHT22;47070;49.212;8.084;2022-11-11T21:57:03;9.20;99.90
61207;DHT22;47070;49.212;8.084;2022-11-11T22:01:10;9.30;99.90
61207;DHT22;47070;49.212;8.084;2022-11-11T22:05:11;9.30;99.90
61207;DHT22;47070;49.212;8.084;2022-11-11T22:09:11;9.30;99.90
61207;DHT22;47070;49.212;8.084;2022-11-11T22:13:12;9.20;99.90
61207;DHT22;47070;49.212;8.084;2022-11-11T22:17:12;9.20;99.90
61207;DHT22;47070;49.212;8.084;2022-11-11T22:21:15;9.10;99.90
61207;DHT22;47070;49.212;8.084;2022-11-11T22:25:16;9.10;99.90
61207;DHT22;47070;49.212;8.084;2022-11-11T22:29:17;9.30;99.90
61207;DHT22;47070;49.212;8.084;2022-11-11T22:33:17;9.30;99.90
61207;DHT22;47070;49.212;8.084;2022-11-11T22:37:18;9.30;99.90
61207;DHT22;47070;49.212;8.084;2022-11-11T22:41:21;9.30;99.90
61207;DHT22;47070;49.212;8.084;2022-11-11T22:45:22;9.20;99.90
61207;DHT22;47070;49.212;8.084;2022-11-11T22:49:22;9.20;99.90
61207;DHT22;47070;49.212;8.084;2022-11-11T22:53:23;8.90;99.90
61207;DHT22;47070;49.212;8.084;2022-11-11T22:57:23;8.90;99.90
61207;DHT22;47070;49.212;8.084;2022-11-11T23:01:31;8.90;99.90
61207;DHT22;47070;49.212;8.084;2022-11-11T23:05:31;8.80;99.90
61207;DHT22;47070;49.212;8.084;2022-11-11T23:09:32;8.70;99.90
61207;DHT22;47070;49.212;8.084;2022-11-11T23:13:37;8.60;99.90
61207;DHT22;47070;49.212;8.084;2022-11-11T23:17:38;8.70;99.90
61207;DHT22;47070;49.212;8.084;2022-11-11T23:21:38;8.60;99.90
61207;DHT22;47070;49.212;8.084;2022-11-11T23:25:39;8.60;99.90
61207;DHT22;47070;49.212;8.084;2022-11-11T23:29:39;8.40;99.90
61207;DHT22;47070;49.212;8.084;2022-11-11T23:33:42;8.30;99.90
61207;DHT22;47070;49.212;8.084;2022-11-11T23:37:43;8.40;99.90
61207;DHT22;47070;49.212;8.084;2022-11-11T23:41:43;8.30;99.90
61207;DHT22;47070;49.212;8.084;2022-11-11T23:45:44;8.40;99.90
61207;DHT22;47070;49.212;8.084;2022-11-11T23:49:44;8.50;99.90
61207;DHT22;47070;49.212;8.084;2022-11-11T23:53:45;8.40;99.90
61207;DHT22;47070;49.212;8.084;2022-11-11T23:57:45;8.40;99.90
